Flight Track Log - Related Links

Times and Time Zones

All times are in EDT time to prevent confusion due to time zone crossing. See the EJA834P flight status page for this flight to view local times or setup timezone preferences in your user account.

Time Position Orientation Groundspeed Altitude Reporting Facility
EDT Latitude Longitude Course Direction KTS MPH feet Rate Location/Type
Thu 12:15:13 PM 40.7667 -74.4333 131° Southeast 190 219 2,100  Level New York TRACON
Thu 12:16:13 PM 40.7333 -74.3833 131° Southeast 232 267 3,400 1,421 Climbing New York TRACON
Thu 12:17:07 PM 40.7667 -74.3167 57° Northeast 300 345 4,800 1,300 Climbing New York TRACON
Thu 12:18:13 PM 40.8500 -74.2667 24° Northeast 308 354 6,000 600 Climbing New York TRACON
Thu 12:19:07 PM 40.9333 -74.2333 17° North 310 357 6,000  Level New York TRACON
Thu 12:20:07 PM 41.0167 -74.2000 17° North 309 356 6,000  Level New York TRACON
Thu 12:21:07 PM 41.0833 -74.1667 21° North 308 354 6,000 50 Level New York TRACON
Thu 12:22:07 PM 41.1667 -74.1000 31° Northeast 304 350 6,100 476 Climbing New York TRACON
Thu 12:23:13 PM 41.1833 -73.9833 79° East 304 350 7,000 450 Climbing New York TRACON
Thu 12:24:07 PM 41.2167 -73.9000 62° Northeast 314 361 7,000  Level New York TRACON
Thu 12:25:07 PM 41.2333 -73.7833 79° East 308 354 7,000  Level New York TRACON
Thu 12:26:13 PM 41.2667 -73.6667 69° East 300 345 7,000  Level New York TRACON
Thu 12:27:07 PM 41.2833 -73.5667 77° East 299 344 7,000  Level New York TRACON
Thu 12:28:13 PM 41.2667 -73.4500 101° East 286 329 7,000  Level New York TRACON
Thu 12:29:13 PM 41.2500 -73.3500 102° East 290 334 7,000  Level New York TRACON
Thu 12:30:13 PM 41.2333 -73.2500 102° East 293 337 7,000  Level New York TRACON
Thu 12:31:13 PM 41.2333 -73.1333 90° East 294 338 7,000 -579 Level New York TRACON
Thu 12:32:07 PM 41.2167 -73.0500 105° East 279 321 5,900 -1,368 Descending New York TRACON
Thu 12:33:07 PM 41.2000 -72.9500 102° East 269 310 4,400 -1,381 Descending New York TRACON
Thu 12:34:13 PM 41.1833 -72.8500 102° East 256 295 3,000 -700 Descending New York TRACON
Thu 12:35:07 PM 41.1667 -72.7667 105° East 253 291 3,000  Level New York TRACON
Thu 12:36:07 PM 41.1167 -72.7000 135° Southeast 251 289 3,000  Level New York TRACON
Thu 12:37:07 PM 41.0833 -72.6167 118° Southeast 256 295 3,000  Level New York TRACON
Thu 12:38:07 PM 41.0500 -72.5500 124° Southeast 257 296 3,000 -200 Level New York TRACON
Thu 12:39:07 PM 40.9833 -72.5333 169° South 244 281 2,600 -550 Descending New York TRACON
Thu 12:40:07 PM 40.9333 -72.5667 207° Southwest 197 227 1,900 -750 Descending New York TRACON
Thu 12:41:07 PM 40.9000 -72.5667 180° South 150 173 1,100 -800 Descending New York TRACON
Thu 12:42:07 PM 40.8667 -72.6000 217° Southwest 115 132 300 -800 Descending New York TRACON
Thu 12:44:00 PM 40.8333 -72.6167 246° West  Level FlightAware Approximate
Thu 12:51:00 PM 40.8437 -72.6318 246° West  Level Estimated

Login

Don't have an account? Register now (free) for customized features, flight alerts, and more!